Time;durP1;ratioP1;P1;durP2;ratioP2;P2;SDS_P1;SDS_P2;PMS_P1;PMS_P2;Temp;Humidity;BMP_temperature;BMP_pressure;BME280_temperature;BME280_humidity;BME280_pressure;Samples;Min_cycle;Max_cycle;Signal;HPM_P1;HPM_P2
2022/01/27 00:02:01;;;;;;;;;;;;;;;3.34;66.17;100485.72;4387456;32;34293;-88
2022/01/27 00:04:36;;;;;;;;;;;;;;;3.41;65.86;100485.09;4385288;32;34037;-90
2022/01/27 00:07:05;;;;;;;;;;;;;;;3.15;66.79;100485.19;4395633;32;33520;-91
2022/01/27 00:09:47;;;;;;;;;;;;;;;3.08;66.85;100492.66;4397129;32;35408;-89
2022/01/27 00:12:18;;;;;;;;;;;;;;;3.04;67.09;100496.81;4383148;32;34330;-90
2022/01/27 00:14:57;;;;;;;;;;;;;;;3.38;65.94;100498.69;4386164;32;35241;-89
2022/01/27 00:17:31;;;;;;;;;;;;;;;3.50;65.49;100495.59;4396361;32;34001;-91
2022/01/27 00:20:00;;;;;;;;;;;;;;;3.53;65.05;100490.56;4386418;32;35324;-88
2022/01/27 00:22:28;;;;;;;;;;;;;;;3.59;64.92;100490.72;4388653;32;33918;-91
2022/01/27 00:24:57;;;;;;;;;;;;;;;3.64;64.52;100486.56;4388890;32;34894;-90
2022/01/27 00:27:25;;;;;;;;;;;;;;;3.37;65.21;100485.81;4389562;32;32892;-90
2022/01/27 00:29:54;;;;;;;;;;;;;;;3.45;64.79;100479.19;4377555;32;34695;-88
2022/01/27 00:32:23;;;;;;;;;;;;;;;3.47;65.12;100471.56;4386377;32;34387;-89
2022/01/27 00:34:53;;;;;;;;;;;;;;;3.68;64.27;100474.72;4375680;32;32643;-89
2022/01/27 00:37:22;;;;;;;;;;;;;;;3.83;63.47;100474.25;4421105;32;31183;-90
2022/01/27 00:39:52;;;;;;;;;;;;;;;3.69;63.99;100473.00;4439250;32;36168;-89
2022/01/27 00:42:20;;;;;;;;;;;;;;;2.96;66.12;100478.63;4428156;32;35041;-90
2022/01/27 00:44:49;;;;;;;;;;;;;;;3.17;65.88;100485.25;4433759;32;35003;-90
2022/01/27 00:47:17;;;;;;;;;;;;;;;2.93;66.65;100491.37;4423691;32;34478;-90
2022/01/27 00:49:46;;;;;;;;;;;;;;;3.41;65.01;100488.50;4416082;32;35441;-90
2022/01/27 00:52:23;;;;;;;;;;;;;;;3.26;65.44;100490.63;4414240;32;34682;-90
2022/01/27 00:54:54;;;;;;;;;;;;;;;3.56;64.73;100497.47;4417235;32;34907;-89
2022/01/27 00:57:36;;;;;;;;;;;;;;;3.58;64.18;100490.69;4420678;32;32063;-90
2022/01/27 01:00:06;;;;;;;;;;;;;;;3.67;63.72;100487.50;4423131;32;33717;-90
2022/01/27 01:02:44;;;;;;;;;;;;;;;3.80;63.18;100487.87;4425984;32;32142;-90
2022/01/27 01:05:29;;;;;;;;;;;;;;;3.63;63.68;100489.13;4415793;32;33641;-90
2022/01/27 01:08:20;;;;;;;;;;;;;;;3.78;63.19;100488.66;4430272;32;33301;-90
2022/01/27 01:16:29;;;;;;;;;;;;;;;3.17;65.19;100467.31;4427607;32;32422;-90
2022/01/27 01:19:08;;;;;;;;;;;;;;;3.61;63.44;100465.13;4425101;32;31973;-90
2022/01/27 01:21:57;;;;;;;;;;;;;;;3.34;64.23;100450.69;4434488;32;35579;-88
2022/01/27 01:30:20;;;;;;;;;;;;;;;3.25;64.27;100452.12;4441137;32;33417;-90
2022/01/27 01:32:53;;;;;;;;;;;;;;;3.35;63.94;100451.56;4424345;32;34049;-91
2022/01/27 01:35:29;;;;;;;;;;;;;;;3.12;64.69;100449.22;4429491;32;35282;-89
2022/01/27 01:37:58;;;;;;;;;;;;;;;3.25;64.27;100452.12;4429725;32;32786;-90
2022/01/27 01:40:28;;;;;;;;;;;;;;;2.86;65.25;100445.88;4425961;32;32869;-90
2022/01/27 01:42:56;;;;;;;;;;;;;;;2.84;65.56;100442.41;4429044;32;35486;-90
2022/01/27 01:45:26;;;;;;;;;;;;;;;2.65;66.23;100434.97;4419175;32;34524;-90
2022/01/27 01:47:55;;;;;;;;;;;;;;;2.95;65.32;100442.72;4429809;32;33893;-91
2022/01/27 01:50:24;;;;;;;;;;;;;;;2.87;65.38;100436.50;4429037;32;34575;-90
2022/01/27 01:52:53;;;;;;;;;;;;;;;2.75;65.87;100437.00;4420152;32;35609;-89
2022/01/27 01:55:21;;;;;;;;;;;;;;;2.97;65.19;100439.38;4431854;32;33916;-91
2022/01/27 01:57:51;;;;;;;;;;;;;;;3.03;65.03;100448.06;4428583;32;33688;-89
2022/01/27 02:00:20;;;;;;;;;;;;;;;3.02;64.92;100448.88;4431533;32;33962;-89
2022/01/27 02:02:48;;;;;;;;;;;;;;;3.10;64.46;100450.84;4431305;32;34208;-90
2022/01/27 02:05:17;;;;;;;;;;;;;;;2.87;65.27;100450.16;4430286;32;33251;-89
2022/01/27 02:07:55;;;;;;;;;;;;;;;3.02;65.05;100456.56;4431062;32;34068;-91
2022/01/27 02:10:41;;;;;;;;;;;;;;;2.98;65.22;100453.94;4434669;32;31787;-91
2022/01/27 02:18:43;;;;;;;;;;;;;;;3.39;63.62;100446.56;4432282;32;33843;-89
2022/01/27 02:21:13;;;;;;;;;;;;;;;3.47;63.32;100433.94;4432245;32;32852;-90
2022/01/27 02:23:42;;;;;;;;;;;;;;;3.40;63.77;100432.03;4429801;32;33502;-89
2022/01/27 02:26:10;;;;;;;;;;;;;;;3.26;63.70;100420.53;4428077;32;35469;-88
2022/01/27 02:28:39;;;;;;;;;;;;;;;2.89;64.96;100429.72;4420794;32;32236;-91
2022/01/27 02:31:07;;;;;;;;;;;;;;;2.99;64.85;100412.06;4428452;32;33690;-89
2022/01/27 02:33:36;;;;;;;;;;;;;;;3.01;65.03;100413.84;4432095;32;34067;-91
2022/01/27 02:36:05;;;;;;;;;;;;;;;2.97;64.64;100424.00;4434494;32;36087;-88
2022/01/27 02:38:35;;;;;;;;;;;;;;;3.14;64.32;100416.81;4430890;32;35558;-91
2022/01/27 02:41:03;;;;;;;;;;;;;;;3.40;63.49;100396.13;4427642;32;34070;-89
2022/01/27 02:43:32;;;;;;;;;;;;;;;3.44;63.63;100394.53;4428643;32;34350;-90
2022/01/27 02:46:06;;;;;;;;;;;;;;;3.48;63.15;100380.94;4431507;32;33837;-90
2022/01/27 02:48:39;;;;;;;;;;;;;;;3.61;62.60;100391.56;4428566;32;34368;-89
2022/01/27 02:51:07;;;;;;;;;;;;;;;3.70;62.50;100392.66;4433057;32;33101;-91
2022/01/27 02:53:37;;;;;;;;;;;;;;;3.82;61.92;100387.84;4436868;32;33961;-91
2022/01/27 02:56:06;;;;;;;;;;;;;;;3.76;61.95;100392.78;4422431;32;34162;-89
2022/01/27 02:58:34;;;;;;;;;;;;;;;3.77;61.88;100390.28;4425708;32;34984;-90
2022/01/27 03:01:04;;;;;;;;;;;;;;;3.68;62.09;100384.03;4430304;32;33659;-90
2022/01/27 03:03:32;;;;;;;;;;;;;;;3.99;60.97;100383.97;4435056;32;34117;-88
2022/01/27 03:06:01;;;;;;;;;;;;;;;3.66;61.80;100389.13;4430173;32;35102;-89
2022/01/27 03:08:30;;;;;;;;;;;;;;;3.61;62.19;100381.31;4431916;32;33772;-88
2022/01/27 03:11:04;;;;;;;;;;;;;;;3.45;62.32;100386.84;4430134;32;33617;-90
2022/01/27 03:13:33;;;;;;;;;;;;;;;3.24;63.22;100394.84;4433202;32;34181;-90
2022/01/27 03:16:01;;;;;;;;;;;;;;;3.17;63.63;100401.50;4435183;32;35117;-90
2022/01/27 03:18:30;;;;;;;;;;;;;;;3.49;62.59;100401.50;4434506;32;33787;-89
2022/01/27 03:20:59;;;;;;;;;;;;;;;3.24;63.35;100409.34;4428195;32;33897;-90
2022/01/27 03:23:27;;;;;;;;;;;;;;;3.21;63.22;100417.81;4427724;32;31675;-91
2022/01/27 03:25:56;;;;;;;;;;;;;;;2.82;64.67;100413.28;4427747;32;33916;-91
2022/01/27 03:28:28;;;;;;;;;;;;;;;3.00;64.15;100402.72;4428456;32;34918;-90
2022/01/27 03:30:56;;;;;;;;;;;;;;;2.98;63.45;100394.97;4437455;32;33317;-89
2022/01/27 03:33:25;;;;;;;;;;;;;;;2.88;64.05;100395.53;4428928;32;35022;-90
2022/01/27 03:35:54;;;;;;;;;;;;;;;2.58;64.77;100407.44;4432580;32;33522;-90
2022/01/27 03:38:22;;;;;;;;;;;;;;;2.46;64.88;100395.12;4432785;32;33631;-90
2022/01/27 03:40:51;;;;;;;;;;;;;;;2.35;65.13;100390.53;4430022;32;33042;-90
2022/01/27 03:43:19;;;;;;;;;;;;;;;2.54;64.58;100402.22;4433908;32;33828;-90
2022/01/27 03:45:49;;;;;;;;;;;;;;;2.65;64.42;100399.09;4427751;32;34641;-89
2022/01/27 03:48:18;;;;;;;;;;;;;;;2.44;64.70;100400.22;4433223;32;32738;-90
2022/01/27 03:50:46;;;;;;;;;;;;;;;2.74;64.26;100394.28;4427304;32;32931;-89
2022/01/27 03:53:15;;;;;;;;;;;;;;;2.94;63.20;100384.59;4417880;32;33290;-90
2022/01/27 03:55:44;;;;;;;;;;;;;;;3.08;62.52;100374.72;4426569;32;34806;-91
2022/01/27 03:58:12;;;;;;;;;;;;;;;3.08;62.36;100390.97;4419819;32;33534;-90
2022/01/27 04:00:40;;;;;;;;;;;;;;;2.96;62.90;100373.56;4429381;32;33681;-90
2022/01/27 04:03:15;;;;;;;;;;;;;;;2.95;62.88;100368.41;4430130;32;33679;-89
2022/01/27 04:05:52;;;;;;;;;;;;;;;3.19;62.10;100373.34;4432399;32;34203;-90
2022/01/27 04:08:25;;;;;;;;;;;;;;;3.27;61.35;100369.28;4428658;32;34109;-89
2022/01/27 04:10:56;;;;;;;;;;;;;;;3.13;62.04;100379.16;4435696;32;33742;-89
2022/01/27 04:13:27;;;;;;;;;;;;;;;3.33;61.24;100377.13;4428034;32;36319;-89
2022/01/27 04:15:57;;;;;;;;;;;;;;;2.56;63.20;100374.97;4423138;32;34421;-90
2022/01/27 04:18:32;;;;;;;;;;;;;;;3.08;61.93;100374.72;4425499;32;34787;-90
2022/01/27 04:21:04;;;;;;;;;;;;;;;2.94;62.04;100366.66;4426887;32;33151;-91
2022/01/27 04:23:33;;;;;;;;;;;;;;;2.83;62.60;100357.78;4431780;32;35493;-89
2022/01/27 04:26:06;;;;;;;;;;;;;;;2.70;63.05;100377.06;4434981;32;39585;-89
2022/01/27 04:28:38;;;;;;;;;;;;;;;2.55;63.33;100380.03;4427013;32;34812;-89
2022/01/27 04:31:08;;;;;;;;;;;;;;;2.26;64.40;100374.88;4427756;32;32917;-88
2022/01/27 04:33:40;;;;;;;;;;;;;;;2.20;64.68;100374.72;4426270;32;33622;-91
2022/01/27 04:36:15;;;;;;;;;;;;;;;2.40;64.18;100383.00;4429927;32;34353;-89
2022/01/27 04:38:49;;;;;;;;;;;;;;;1.98;65.19;100362.91;4428917;32;34289;-89
2022/01/27 04:41:29;;;;;;;;;;;;;;;2.14;64.78;100360.00;4426159;32;33513;-88
2022/01/27 04:44:04;;;;;;;;;;;;;;;2.18;64.56;100370.38;4425673;32;35318;-90
2022/01/27 04:46:39;;;;;;;;;;;;;;;2.25;64.50;100362.06;4419952;32;34087;-89
2022/01/27 04:49:10;;;;;;;;;;;;;;;2.49;63.61;100375.59;4440163;32;34892;-90
2022/01/27 04:51:39;;;;;;;;;;;;;;;2.47;63.72;100371.25;4432699;32;33124;-89
2022/01/27 04:54:13;;;;;;;;;;;;;;;2.54;63.58;100378.31;4425196;32;34684;-88
2022/01/27 04:56:42;;;;;;;;;;;;;;;2.67;63.28;100377.84;4428287;32;35085;-89
2022/01/27 04:59:17;;;;;;;;;;;;;;;2.68;63.19;100386.37;4431178;32;34258;-90
2022/01/27 05:01:49;;;;;;;;;;;;;;;2.65;63.14;100382.03;4431424;32;33238;-89
2022/01/27 05:04:22;;;;;;;;;;;;;;;2.78;62.74;100380.72;4432515;32;34901;-89
2022/01/27 05:06:51;;;;;;;;;;;;;;;2.75;62.82;100376.37;4434256;32;35064;-89
2022/01/27 05:09:20;;;;;;;;;;;;;;;3.09;61.76;100385.00;4429743;32;34849;-89
2022/01/27 05:11:52;;;;;;;;;;;;;;;2.81;62.60;100375.69;4427982;32;34013;-88
2022/01/27 05:14:23;;;;;;;;;;;;;;;2.73;62.74;100367.78;4426661;32;34056;-89
2022/01/27 05:16:52;;;;;;;;;;;;;;;2.74;62.92;100360.97;4432024;32;33671;-88
2022/01/27 05:19:22;;;;;;;;;;;;;;;2.47;63.91;100364.44;4431368;32;34079;-90
2022/01/27 05:21:50;;;;;;;;;;;;;;;3.03;62.27;100371.19;4435134;32;33529;-89
2022/01/27 05:24:22;;;;;;;;;;;;;;;3.29;61.36;100369.34;4430594;32;33736;-89
2022/01/27 05:26:50;;;;;;;;;;;;;;;2.90;62.37;100372.50;4429542;32;34962;-90
2022/01/27 05:29:23;;;;;;;;;;;;;;;2.99;62.26;100367.66;4430501;32;34939;-90
2022/01/27 05:31:51;;;;;;;;;;;;;;;2.93;62.33;100372.63;4429167;32;34459;-89
2022/01/27 05:34:21;;;;;;;;;;;;;;;2.99;62.31;100370.22;4436133;32;33823;-90
2022/01/27 05:36:50;;;;;;;;;;;;;;;3.06;61.85;100374.69;4431599;32;35651;-89
2022/01/27 05:39:18;;;;;;;;;;;;;;;2.97;62.15;100371.84;4430668;32;34533;-90
2022/01/27 05:41:47;;;;;;;;;;;;;;;2.73;63.00;100370.34;4430708;32;34035;-89
2022/01/27 05:44:15;;;;;;;;;;;;;;;2.86;62.89;100358.75;4429701;32;35030;-89
2022/01/27 05:46:44;;;;;;;;;;;;;;;2.97;62.42;100352.25;4434319;32;34154;-91
2022/01/27 05:49:12;;;;;;;;;;;;;;;2.79;62.96;100338.91;4430447;32;34120;-89
2022/01/27 05:51:42;;;;;;;;;;;;;;;3.05;62.16;100344.75;4424960;32;33892;-89
2022/01/27 05:54:11;;;;;;;;;;;;;;;2.94;62.67;100347.00;4424339;32;34040;-88
2022/01/27 05:56:39;;;;;;;;;;;;;;;2.77;63.31;100345.66;4426055;32;34236;-90
2022/01/27 05:59:08;;;;;;;;;;;;;;;2.61;63.94;100346.03;4433611;32;34847;-90
2022/01/27 06:01:37;;;;;;;;;;;;;;;2.84;63.23;100349.28;4426360;32;35165;-90
2022/01/27 06:04:06;;;;;;;;;;;;;;;3.14;62.40;100344.12;4428294;32;33797;-88
2022/01/27 06:06:34;;;;;;;;;;;;;;;2.99;62.56;100342.88;4427643;32;35004;-88
2022/01/27 06:09:07;;;;;;;;;;;;;;;2.77;63.44;100337.97;4429876;32;34531;-89
2022/01/27 06:11:36;;;;;;;;;;;;;;;2.74;63.69;100343.03;4423413;32;33373;-90
2022/01/27 06:14:04;;;;;;;;;;;;;;;3.11;62.79;100338.91;4429012;32;34084;-89
2022/01/27 06:16:33;;;;;;;;;;;;;;;3.09;62.64;100335.44;4422135;32;34239;-90
2022/01/27 06:19:04;;;;;;;;;;;;;;;3.00;62.88;100323.25;4427197;32;34662;-88
2022/01/27 06:21:35;;;;;;;;;;;;;;;3.25;62.40;100336.75;4425717;32;34123;-88
2022/01/27 06:24:05;;;;;;;;;;;;;;;3.27;62.24;100341.09;4423696;32;34170;-90
2022/01/27 06:26:35;;;;;;;;;;;;;;;3.15;62.62;100340.75;4426800;32;33852;-88
2022/01/27 06:29:05;;;;;;;;;;;;;;;3.10;62.79;100347.44;4424685;32;34461;-88
2022/01/27 06:31:35;;;;;;;;;;;;;;;3.30;62.11;100351.41;4423445;32;32001;-88
2022/01/27 06:34:04;;;;;;;;;;;;;;;3.15;62.70;100348.44;4426854;32;36279;-88
2022/01/27 06:36:33;;;;;;;;;;;;;;;3.37;62.29;100357.59;4427605;32;34653;-88
2022/01/27 06:39:01;;;;;;;;;;;;;;;3.49;61.66;100367.31;4434290;32;33887;-87
2022/01/27 06:41:30;;;;;;;;;;;;;;;3.57;61.38;100365.78;4432937;32;34127;-88
2022/01/27 06:44:02;;;;;;;;;;;;;;;3.44;62.08;100374.00;4425078;32;33148;-87
2022/01/27 06:46:32;;;;;;;;;;;;;;;3.57;61.51;100371.78;4427554;32;34020;-88
2022/01/27 06:49:01;;;;;;;;;;;;;;;3.63;61.37;100382.22;4427162;32;34084;-90
2022/01/27 06:51:29;;;;;;;;;;;;;;;3.75;61.17;100389.37;4431689;32;34530;-88
2022/01/27 06:53:58;;;;;;;;;;;;;;;3.58;61.61;100391.50;4437289;32;34455;-89
2022/01/27 06:56:30;;;;;;;;;;;;;;;3.96;60.26;100390.72;4433762;32;34271;-89
2022/01/27 06:59:00;;;;;;;;;;;;;;;3.57;61.29;100394.00;4433861;32;34548;-89
2022/01/27 07:01:28;;;;;;;;;;;;;;;3.57;61.51;100399.16;4433090;32;34605;-90
2022/01/27 07:03:57;;;;;;;;;;;;;;;3.62;61.16;100393.31;4433134;32;34127;-89
2022/01/27 07:06:25;;;;;;;;;;;;;;;3.83;60.93;100398.12;4436505;32;34283;-89
2022/01/27 07:08:54;;;;;;;;;;;;;;;3.80;61.00;100389.50;4432375;32;34068;-88
2022/01/27 07:11:22;;;;;;;;;;;;;;;3.66;61.63;100381.44;4433771;32;33223;-88
2022/01/27 07:13:51;;;;;;;;;;;;;;;3.80;60.53;100390.34;4433984;32;34318;-88
2022/01/27 07:16:20;;;;;;;;;;;;;;;3.70;60.91;100390.09;4434621;32;34230;-87
2022/01/27 07:18:51;;;;;;;;;;;;;;;3.53;61.41;100389.66;4438523;32;33990;-88
2022/01/27 07:21:21;;;;;;;;;;;;;;;3.42;61.89;100390.22;4438304;32;33540;-90
2022/01/27 07:23:50;;;;;;;;;;;;;;;3.61;61.04;100395.84;4433152;32;34017;-89
2022/01/27 07:26:24;;;;;;;;;;;;;;;3.73;60.88;100388.47;4434358;32;34284;-88
2022/01/27 07:28:53;;;;;;;;;;;;;;;3.82;60.22;100381.00;4434549;32;34829;-88
2022/01/27 07:31:23;;;;;;;;;;;;;;;3.45;61.43;100376.59;4431287;32;33895;-88
2022/01/27 07:33:52;;;;;;;;;;;;;;;3.34;62.20;100376.31;4438265;32;34381;-88
2022/01/27 07:36:21;;;;;;;;;;;;;;;3.66;61.13;100371.16;4434462;32;34099;-90
2022/01/27 07:38:50;;;;;;;;;;;;;;;3.60;60.96;100371.00;4432499;32;34436;-88
2022/01/27 07:41:18;;;;;;;;;;;;;;;3.57;60.80;100360.66;4432527;32;32816;-89
2022/01/27 07:43:47;;;;;;;;;;;;;;;3.37;61.27;100355.00;4429366;32;34298;-88
2022/01/27 07:46:15;;;;;;;;;;;;;;;3.34;61.72;100358.38;4435903;32;34685;-88
2022/01/27 07:48:45;;;;;;;;;;;;;;;3.29;61.75;100349.69;4431272;32;34656;-88
2022/01/27 07:51:14;;;;;;;;;;;;;;;3.54;60.98;100350.31;4433409;32;31699;-88
2022/01/27 07:53:43;;;;;;;;;;;;;;;3.49;60.96;100344.22;4431178;32;33811;-88
2022/01/27 07:56:31;;;;;;;;;;;;;;;3.51;60.86;100345.13;4429462;32;35554;-88
2022/01/27 07:58:59;;;;;;;;;;;;;;;3.50;60.95;100339.09;4436611;32;34429;-88
2022/01/27 08:01:29;;;;;;;;;;;;;;;3.59;60.82;100346.19;4432196;32;33539;-89
2022/01/27 08:03:59;;;;;;;;;;;;;;;3.42;60.71;100344.03;4432471;32;33931;-88
2022/01/27 08:06:27;;;;;;;;;;;;;;;3.46;61.03;100346.72;4433455;32;34226;-90
2022/01/27 08:08:56;;;;;;;;;;;;;;;3.41;61.15;100344.03;4431241;32;33362;-88
2022/01/27 08:11:24;;;;;;;;;;;;;;;3.55;60.73;100347.81;4435282;32;33686;-89
2022/01/27 08:13:53;;;;;;;;;;;;;;;3.64;60.62;100348.03;4437109;32;34764;-88
2022/01/27 08:16:21;;;;;;;;;;;;;;;3.82;59.88;100347.62;4432778;32;34038;-88
2022/01/27 08:18:50;;;;;;;;;;;;;;;4.08;59.20;100352.50;4431997;32;35150;-89
2022/01/27 08:21:20;;;;;;;;;;;;;;;4.13;58.90;100339.78;4429785;32;34647;-88
2022/01/27 08:23:48;;;;;;;;;;;;;;;4.23;58.65;100342.63;4431664;32;33949;-90
2022/01/27 08:26:29;;;;;;;;;;;;;;;4.20;58.52;100347.66;4437821;32;32580;-89
2022/01/27 08:29:08;;;;;;;;;;;;;;;4.16;59.25;100345.87;4429741;32;35609;-88
2022/01/27 08:31:53;;;;;;;;;;;;;;;4.52;58.02;100350.09;4433653;32;32905;-87
2022/01/27 08:34:29;;;;;;;;;;;;;;;4.61;57.47;100346.84;4433378;32;34010;-88
2022/01/27 08:37:00;;;;;;;;;;;;;;;4.40;58.10;100345.56;4433919;32;34195;-88
2022/01/27 08:39:28;;;;;;;;;;;;;;;4.47;57.76;100336.28;4426862;32;34246;-89
2022/01/27 08:41:57;;;;;;;;;;;;;;;4.35;57.99;100339.47;4433733;32;32874;-89
2022/01/27 08:44:26;;;;;;;;;;;;;;;4.15;58.76;100344.12;4427671;32;33857;-88
2022/01/27 08:46:56;;;;;;;;;;;;;;;4.08;58.93;100334.53;4426728;32;33572;-88
2022/01/27 08:49:26;;;;;;;;;;;;;;;4.28;58.34;100332.44;4426079;32;34543;-89
2022/01/27 08:52:15;;;;;;;;;;;;;;;4.01;59.24;100333.53;4428356;32;32804;-89
2022/01/27 08:54:44;;;;;;;;;;;;;;;4.13;58.58;100338.09;4428493;32;35444;-88
2022/01/27 08:57:13;;;;;;;;;;;;;;;4.31;58.51;100341.91;4432989;32;34243;-88
2022/01/27 08:59:41;;;;;;;;;;;;;;;4.38;57.74;100352.34;4430265;32;33687;-87
2022/01/27 09:02:10;;;;;;;;;;;;;;;4.36;57.72;100353.16;4429954;32;32854;-88
2022/01/27 09:04:39;;;;;;;;;;;;;;;4.00;58.88;100334.34;4427069;32;34063;-87
2022/01/27 09:07:07;;;;;;;;;;;;;;;4.08;58.76;100344.81;4428816;32;34833;-88
2022/01/27 09:09:37;;;;;;;;;;;;;;;4.04;58.61;100337.88;4432261;32;34137;-89
2022/01/27 09:12:06;;;;;;;;;;;;;;;3.68;59.92;100345.56;4426093;32;32939;-90
2022/01/27 09:14:35;;;;;;;;;;;;;;;3.96;58.75;100329.09;4426952;32;34545;-89
2022/01/27 09:17:03;;;;;;;;;;;;;;;4.12;58.67;100338.91;4425898;32;32900;-89
2022/01/27 09:19:37;;;;;;;;;;;;;;;4.30;58.16;100342.72;4427430;32;34023;-88
2022/01/27 09:22:11;;;;;;;;;;;;;;;4.10;58.72;100343.16;4425951;32;34120;-89
2022/01/27 09:24:48;;;;;;;;;;;;;;;4.27;58.17;100349.53;4432498;32;36237;-89
2022/01/27 09:27:16;;;;;;;;;;;;;;;4.24;57.74;100343.47;4427774;32;33785;-89
2022/01/27 09:29:47;;;;;;;;;;;;;;;4.29;58.11;100359.84;4426663;32;35043;-89
2022/01/27 09:32:15;;;;;;;;;;;;;;;4.26;57.98;100354.66;4428063;32;33639;-91
2022/01/27 09:34:44;;;;;;;;;;;;;;;3.99;58.41;100363.44;4430355;32;34198;-90
2022/01/27 09:37:14;;;;;;;;;;;;;;;4.07;58.51;100355.91;4424109;32;35161;-89
2022/01/27 09:39:46;;;;;;;;;;;;;;;4.07;58.50;100353.34;4436264;32;34982;-89
2022/01/27 09:42:16;;;;;;;;;;;;;;;4.19;58.08;100347.62;4430912;32;33569;-90
2022/01/27 09:44:51;;;;;;;;;;;;;;;4.22;58.12;100353.69;4429516;32;35268;-90
2022/01/27 09:47:24;;;;;;;;;;;;;;;4.34;57.47;100335.13;4424802;32;35692;-88
2022/01/27 09:49:55;;;;;;;;;;;;;;;4.84;56.14;100334.50;4424532;32;32765;-90
2022/01/27 09:52:24;;;;;;;;;;;;;;;4.83;56.27;100337.88;4432743;32;33492;-90
2022/01/27 09:54:53;;;;;;;;;;;;;;;4.76;56.33;100334.34;4428742;32;34282;-90
2022/01/27 09:57:22;;;;;;;;;;;;;;;4.31;57.23;100341.91;4426526;32;34989;-89
2022/01/27 09:59:51;;;;;;;;;;;;;;;4.54;57.08;100348.41;4426145;32;36171;-90
2022/01/27 10:02:21;;;;;;;;;;;;;;;4.57;56.69;100350.22;4424448;32;34344;-88
2022/01/27 10:04:52;;;;;;;;;;;;;;;4.53;56.92;100356.09;4430482;32;33870;-91
2022/01/27 10:07:22;;;;;;;;;;;;;;;4.63;56.19;100340.03;4432646;32;35779;-90
2022/01/27 10:10:00;;;;;;;;;;;;;;;4.73;55.91;100341.09;4432137;32;34769;-90
2022/01/27 10:12:30;;;;;;;;;;;;;;;4.38;56.80;100321.53;4428695;32;32841;-88
2022/01/27 10:14:59;;;;;;;;;;;;;;;4.12;57.75;100322.66;4432475;32;34924;-89
2022/01/27 10:17:30;;;;;;;;;;;;;;;4.37;57.22;100306.06;4429618;32;34089;-87
2022/01/27 10:19:59;;;;;;;;;;;;;;;4.44;56.82;100316.50;4429072;32;34769;-90
2022/01/27 10:22:28;;;;;;;;;;;;;;;4.67;56.29;100313.59;4429366;32;35161;-89
2022/01/27 10:25:01;;;;;;;;;;;;;;;4.51;57.07;100294.41;4425857;32;34522;-89
2022/01/27 10:27:34;;;;;;;;;;;;;;;4.61;57.08;100288.59;4428951;32;34844;-89
2022/01/27 10:32:50;;;;;;;;;;;;;;;4.91;55.70;100283.22;4430776;32;33153;-89
2022/01/27 10:35:20;;;;;;;;;;;;;;;5.14;55.35;100281.06;4433836;32;33666;-90
2022/01/27 10:37:57;;;;;;;;;;;;;;;5.21;55.09;100274.34;4429703;32;35154;-89
2022/01/27 10:40:30;;;;;;;;;;;;;;;5.18;55.30;100261.44;4431043;32;34537;-90
2022/01/27 10:43:08;;;;;;;;;;;;;;;5.14;55.10;100264.78;4427479;32;33338;-90
2022/01/27 10:45:40;;;;;;;;;;;;;;;4.82;55.82;100253.91;4429107;32;35489;-90
2022/01/27 10:48:16;;;;;;;;;;;;;;;4.68;56.48;100251.91;4425884;32;34115;-89
2022/01/27 10:50:51;;;;;;;;;;;;;;;4.99;55.81;100247.37;4435059;32;32848;-91
2022/01/27 10:53:23;;;;;;;;;;;;;;;5.17;55.18;100243.38;4432718;32;34284;-91
2022/01/27 10:56:04;;;;;;;;;;;;;;;4.95;55.74;100237.84;4424729;32;34911;-89
2022/01/27 10:58:32;;;;;;;;;;;;;;;5.07;54.96;100230.37;4429323;32;33668;-89
2022/01/27 11:01:02;;;;;;;;;;;;;;;4.85;55.52;100235.94;4427248;32;34199;-91
2022/01/27 11:03:31;;;;;;;;;;;;;;;4.85;55.34;100238.53;4426011;32;32966;-89
2022/01/27 11:06:08;;;;;;;;;;;;;;;5.05;54.96;100234.63;4430562;32;34574;-91
2022/01/27 11:08:37;;;;;;;;;;;;;;;5.03;55.01;100238.00;4428953;32;33976;-90
2022/01/27 11:11:07;;;;;;;;;;;;;;;5.00;54.72;100233.69;4428856;32;34238;-89
2022/01/27 11:13:35;;;;;;;;;;;;;;;4.83;55.27;100228.22;4426993;32;34010;-89
2022/01/27 11:16:11;;;;;;;;;;;;;;;5.24;54.53;100228.09;4426661;32;33341;-88
2022/01/27 11:18:39;;;;;;;;;;;;;;;5.19;54.52;100214.28;4427502;32;34164;-88
2022/01/27 11:21:13;;;;;;;;;;;;;;;5.54;53.76;100219.16;4430945;32;34376;-89
2022/01/27 11:24:01;;;;;;;;;;;;;;;5.65;53.53;100209.00;4426011;32;34275;-90
2022/01/27 11:26:31;;;;;;;;;;;;;;;5.72;53.02;100203.97;4431321;32;34018;-89
2022/01/27 11:29:03;;;;;;;;;;;;;;;5.72;53.29;100205.69;4426680;32;33562;-88
2022/01/27 11:31:46;;;;;;;;;;;;;;;5.98;52.48;100203.50;4428509;32;33072;-88
2022/01/27 11:34:15;;;;;;;;;;;;;;;5.91;53.15;100211.97;4433925;32;32881;-89
2022/01/27 11:36:58;;;;;;;;;;;;;;;5.54;54.11;100198.56;4436240;32;33663;-88
2022/01/27 11:39:42;;;;;;;;;;;;;;;5.49;54.30;100192.47;4437885;32;34936;-89
2022/01/27 11:42:12;;;;;;;;;;;;;;;5.60;54.22;100180.63;4432850;32;34309;-89
2022/01/27 11:44:43;;;;;;;;;;;;;;;5.52;54.29;100185.66;4433950;32;33801;-89
2022/01/27 11:47:21;;;;;;;;;;;;;;;5.64;54.02;100179.84;4431086;32;34101;-89
2022/01/27 11:49:56;;;;;;;;;;;;;;;5.63;53.77;100170.38;4431448;32;35069;-89
2022/01/27 11:52:27;;;;;;;;;;;;;;;5.66;53.33;100173.00;4433456;32;33178;-89
2022/01/27 11:54:57;;;;;;;;;;;;;;;5.68;53.42;100166.16;4438368;32;33276;-89
2022/01/27 11:57:40;;;;;;;;;;;;;;;5.84;52.91;100162.06;4429785;32;34110;-88
2022/01/27 12:00:09;;;;;;;;;;;;;;;5.82;53.10;100160.34;4427269;32;33666;-89
2022/01/27 12:02:58;;;;;;;;;;;;;;;6.31;51.81;100155.84;4429571;32;34683;-89
2022/01/27 12:05:28;;;;;;;;;;;;;;;6.11;52.55;100159.06;4423420;32;33306;-89
2022/01/27 12:08:15;;;;;;;;;;;;;;;6.14;52.05;100159.09;4421013;32;34814;-88
2022/01/27 12:10:59;;;;;;;;;;;;;;;6.10;52.08;100159.03;4437189;32;33916;-89
2022/01/27 12:13:55;;;;;;;;;;;;;;;6.19;52.44;100159.16;4432645;32;34066;-89
2022/01/27 12:16:55;;;;;;;;;;;;;;;6.53;51.25;100155.22;4430416;32;33552;-90
2022/01/27 12:19:47;;;;;;;;;;;;;;;6.48;51.14;100161.19;4430002;32;33651;-88
2022/01/27 12:22:18;;;;;;;;;;;;;;;6.11;51.84;100153.91;4430141;32;34253;-89
2022/01/27 12:24:53;;;;;;;;;;;;;;;6.36;51.42;100160.19;4428681;32;34295;-89
2022/01/27 12:27:28;;;;;;;;;;;;;;;6.18;52.10;100157.41;4424555;32;32759;-91
2022/01/27 12:30:27;;;;;;;;;;;;;;;6.27;52.07;100164.38;4429734;32;33962;-89
2022/01/27 12:33:04;;;;;;;;;;;;;;;6.38;51.50;100150.78;4431724;32;33965;-89
2022/01/27 12:35:44;;;;;;;;;;;;;;;6.48;51.11;100144.00;4429723;32;34020;-89
2022/01/27 12:38:18;;;;;;;;;;;;;;;6.35;51.52;100142.13;4427431;32;34017;-89
2022/01/27 12:40:48;;;;;;;;;;;;;;;6.18;51.94;100132.50;4424025;32;34740;-90
2022/01/27 12:43:17;;;;;;;;;;;;;;;6.18;52.46;100136.78;4426886;32;33600;-89
2022/01/27 12:45:47;;;;;;;;;;;;;;;6.43;51.76;100134.47;4432074;32;34262;-90
2022/01/27 12:48:23;;;;;;;;;;;;;;;6.06;52.77;100119.47;4426605;32;33993;-88
2022/01/27 12:50:56;;;;;;;;;;;;;;;6.44;52.51;100110.47;4430967;32;34226;-88
2022/01/27 12:53:27;;;;;;;;;;;;;;;6.69;51.55;100112.41;4433970;32;34251;-91
2022/01/27 12:55:56;;;;;;;;;;;;;;;6.97;51.09;100104.94;4423450;32;34977;-89
2022/01/27 12:58:26;;;;;;;;;;;;;;;7.03;50.84;100099.78;4425516;32;33345;-88
2022/01/27 13:00:55;;;;;;;;;;;;;;;6.80;51.23;100103.06;4418114;32;34023;-89
2022/01/27 13:03:25;;;;;;;;;;;;;;;6.87;51.18;100088.50;4429867;32;34560;-88
2022/01/27 13:05:55;;;;;;;;;;;;;;;6.91;51.06;100079.97;4435043;32;32578;-89
2022/01/27 13:08:26;;;;;;;;;;;;;;;6.98;50.95;100073.09;4426701;32;33877;-90
2022/01/27 13:10:57;;;;;;;;;;;;;;;7.14;50.81;100064.63;4431404;32;35952;-88
2022/01/27 13:13:28;;;;;;;;;;;;;;;7.35;49.63;100058.75;4431139;32;34741;-89
2022/01/27 13:15:59;;;;;;;;;;;;;;;7.07;50.68;100042.22;4431017;32;34900;-88
2022/01/27 13:18:34;;;;;;;;;;;;;;;7.48;50.12;100049.34;4436441;32;34070;-89
2022/01/27 13:21:08;;;;;;;;;;;;;;;7.48;50.32;100039.88;4433740;32;33635;-89
2022/01/27 13:23:42;;;;;;;;;;;;;;;7.35;51.12;100040.69;4429360;32;33955;-88
2022/01/27 13:26:11;;;;;;;;;;;;;;;7.46;51.06;100038.16;4431915;32;33671;-89
2022/01/27 13:28:40;;;;;;;;;;;;;;;7.33;51.57;100037.22;4429174;32;32852;-88
2022/01/27 13:31:11;;;;;;;;;;;;;;;7.28;51.60;100032.91;4424806;32;34912;-88